Logo AVAMET
Benvolgut visitant, si us plau, ingressa Recuperar contrasenya

Sella poble

Dades diàries. Acumulats / Últims 30 dies disponibles

Data Temperatura (°C) Humitat rel. (%) Pressió rel. (hPa) Vent (km/h) Precipitació
Mínima Mitjana Màxima Amplitud
tèrmica
Mínima Mitjana Màxima Mínima Mitjana Màxima Predom. Mitjana Ràfega
màxima
Total
(mm)
Índex-n
Mínima Mitjana Màxima Mínima Mitjana Màxima n
0 a 1
P0 max
mm 5'
Dades mensuals acumulades fins l'últim dia disponible
12/2019 8,7 10,1 13,1 12,7 11,9 15,8 19,5 10,8 7 69 98 1.001 1.015 1.025   9,7 70,3 95,6
Dades anuals acumulades fins l'últim dia disponible
2019 1,9 13,8 26,3 17,4 9,7 21,8 36,6 34,7 2 62 98 993 1.015 1.031   7,8 77,7 611,0
Últims 30 dies disponibles
14-12-2019 11,0     14,3     18,0 7,0 46 60 77 1.011 1.014 1.016 WNW 10,9 62,9 0,0
13-12-2019 13,1     15,4     17,1 4,0 57 69 79 1.006 1.009 1.013 W 17,1 70,3 0,0
12-12-2019 9,8     11,1     13,2 3,4 29 50 70 1.008 1.015 1.019 WNW 14,5 51,8 0,0
11-12-2019 9,0     13,5     18,3 9,3 8 32 68 1.014 1.018 1.021 WNW 11,8 70,3 0,0
10-12-2019 8,7     12,8     16,8 8,1 10 40 88 1.020 1.022 1.024 NW 6,8 25,9 0,0
09-12-2019 12,8     15,4     19,5 6,7 7 35 79 1.019 1.022 1.025 WNW 10,0 40,7 0,0
08-12-2019 9,2     12,8     16,3 7,1 61 73 94 1.019 1.021 1.022 WNW 8,9 37,0 0,0
07-12-2019 8,8     11,3     15,7 6,9 65 84 97 1.020 1.021 1.022 NW 8,8 20,4 0,0
06-12-2019 9,4     11,9     16,3 6,9 68 86 95 1.018 1.020 1.021 NW 8,8 22,2 0,0
05-12-2019 10,0     11,5     14,2 4,2 79 91 98 1.007 1.013 1.019 NW 5,3 14,8 0,0
04-12-2019 9,2     11,0     12,7 3,5 77 88 98 1.001 1.004 1.008 WNW 7,5 31,4 59,1 0,54 4,30
03-12-2019 9,0     10,5     11,9 2,9 78 83 92 1.006 1.010 1.014 W 14,5 61,0 16,4 0,32 1,00
02-12-2019 11,0     12,4     13,8 2,8 77 90 98 1.008 1.011 1.014 WNW 5,7 24,1 20,1 0,25 1,00
01-12-2019 10,9     13,5     17,0 6,1 61 84 98 1.009 1.011 1.013 NW 5,7 16,6 0,0
30-11-2019 12,1     14,9     19,8 7,7 65 80 93 1.012 1.017 1.020 O 8,5 21,6 0,0
29-11-2019 13,1     16,3     20,2 7,1 58 69 82 1.014 1.017 1.019 WNW 8,9 37,0 0,0
28-11-2019 12,0     14,8     19,7 7,7 48 65 78 1.012 1.014 1.016 WNW 8,5 38,9 0,0
27-11-2019 13,9     16,1     19,1 5,2 45 66 85 1.008 1.010 1.013 WSW 9,0 50,0 0,0
26-11-2019 13,9     16,2     20,5 6,6 52 74 93 1.009 1.012 1.014 WNW 8,5 35,1 0,0
25-11-2019 11,3     15,3     18,8 7,5 64 74 84 1.010 1.012 1.014 WNW 10,0 51,8 0,0
24-11-2019 9,6     11,6     13,6 4,0 47 53 63 1.005 1.009 1.012 NW 15,0 53,6 0,0
23-11-2019 10,7     12,1     17,0 6,3 50 64 98 993 998 1.005 NW 11,4 48,1 0,5
22-11-2019 9,7     13,0     17,4 7,7 80 92 98 994 1.002 1.007 NNW 6,9 31,4 17,5 0,45 1,20
21-11-2019 8,1     10,8     14,0 5,9 67 86 96 1.006 1.007 1.009 NW 6,6 20,4 0,0
20-11-2019 6,2     9,7     14,1 7,9 49 69 97 1.007 1.009 1.013 NW 7,9 20,4 1,5
19-11-2019 4,5     9,0     13,4 8,9 25 55 73 1.012 1.013 1.015 NW 8,2 25,9 0,0
18-11-2019 6,8     10,4     13,8 7,0 50 68 90 1.004 1.008 1.014 WNW 9,1 33,3 1,0
17-11-2019 7,4     10,8     15,7 8,3 34 53 82 1.006 1.010 1.012 WNW 9,1 38,9 0,0
16-11-2019 6,9     9,4     12,7 5,8 34 52 70 1.004 1.008 1.013 W 9,5 48,1 0,0
15-11-2019 7,5     9,4     12,3 4,8 38 58 70 999 1.001 1.004 W 9,7 38,9 0,0
Últims 13 mesos disponibles
11/2019 4,5 10,8 18,6 13,6 12,3 17,2 24,7 20,2 42 62 92 998 1.009 1.017 WNW 10,1 72,2 25,8
10/2019 9,7 15,4 19,5 18,7 15,2 22,8 28,5 18,8 42 72 91 1.007 1.016 1.021 NW 7,6 77,7 67,1
09/2019 13,9 18,7 21,6 22,2 21,1 26,0 30,5 16,6 45 80 93 1.010 1.017 1.021 NW 7,2 50,0 142,7
08/2019 18,2 21,4 26,3 25,3 26,5 30,1 36,2 18,0 21 66 86 1.012 1.016 1.020 NW 7,0 29,6 11,6
07/2019 19,0 21,3 24,9 26,0 26,6 31,0 36,6 17,6 17 52 91 1.007 1.014 1.020 NW 7,1 35,1 4,7
06/2019 12,6 17,4 25,5 22,1 21,7 27,1 35,9 23,3 14 51 88 1.008 1.014 1.021 NW 7,2 37,4 0,5
05/2019 8,4 13,1 19,5 17,1 15,4 21,5 27,4 19,0 39 68 89 1.004 1.014 1.023 NW 6,3 52,2 11,7
04/2019 7,0 10,3 13,5 13,6 12,6 17,5 26,2 19,2 27 71 94 999 1.011 1.023 NW 6,5 61,0 210,7
03/2019 5,6 9,4 14,6 13,5 11,4 18,0 25,3 19,7 11 48 90 1.009 1.020 1.027 NW 8,1 51,8 30,6
02/2019 2,4 7,4 13,5 11,3 9,9 16,5 22,3 19,9 13 48 80 995 1.021 1.029 NW 9,3 66,6 0,5
01/2019 1,9 7,0 11,1 10,2 9,7 14,3 18,8 16,9 26 55 86 1.002 1.016 1.027 NNW 9,1 68,5 9,5
12/2018 5,9 9,3 15,1 13,0 12,7 17,5 22,7 16,8 26 62 85 1.007 1.022 1.028 NNW 7,6 62,9 47,8
11/2018 7,8 10,8 14,8 13,6 12,6 17,3 21,8 14,0 30 69 93 999 1.013 1.020 NW 6,9 61,0 88,8
Tots els anys disponibles
2018 1,5 13,4 25,6 17,0 6,9 21,3 33,7 32,2 26 70 93 998 1.017 1.028 NW 6,9 70,3 555,7
2017 0,2 13,4 26,9 17,2 5,7 21,7 37,0 36,8 32 50 68 1.010 1.015 1.021 7,3 64,8 559,8
2016 2,7 13,8 26,9 17,3 8,3 21,5 37,1 34,4 7,0 66,6 475,5
Temperatura (°C)
Humitat relativa (%)
Velocitat del vent i ràfega màxima (km/h)
Direcció del vent (°)
Pressió (hPa)
Precipitació (mm)
Nota sobre les dades: s'avisa a l'usuari de la provisionalitat i no oficialitat d'aquestes dades
Logo AVAMET blanc
Web allotjada a Sollutia
Llicència de Creative CommonsLa web d'AVAMET i els seus continguts estan subjectes a una llicència de
Reconeixement - No Comercial - Compartir igual
Últimes estacions: Aielo de Malferit - Centre (Soci), Faura (Inforatge), Benifairó de les Valls (Inforatge), Xàbia - Les Valls (Soci) - - -